createdAt,value
2023-05-10T00:00:19.870Z,100153.97
2023-05-10T00:01:22.572Z,100162.41
2023-05-10T00:02:26.668Z,100160.63
2023-05-10T00:03:29.972Z,100158.88
2023-05-10T00:04:33.793Z,100157.81
2023-05-10T00:05:36.726Z,100156.22
2023-05-10T00:06:40.574Z,100150.88
2023-05-10T00:07:46.024Z,100156.13
2023-05-10T00:08:49.820Z,100153.47
2023-05-10T00:09:52.853Z,100156.03
2023-05-10T00:10:56.786Z,100141.78
2023-05-10T00:11:59.868Z,100158.53
2023-05-10T00:13:04.518Z,100157.53
2023-05-10T00:14:07.583Z,100156.56
2023-05-10T00:15:13.473Z,100156.56
2023-05-10T00:16:16.644Z,100150.47
2023-05-10T00:17:20.315Z,100156.41
2023-05-10T00:18:22.689Z,100156.34
2023-05-10T00:19:26.165Z,100155.38
2023-05-10T00:20:28.779Z,100149.16
2023-05-10T00:21:33.576Z,100150.94
2023-05-10T00:22:36.583Z,100145.63
2023-05-10T00:23:40.454Z,100152.34
2023-05-10T00:24:43.083Z,100145.63
2023-05-10T00:25:47.092Z,100152.44
2023-05-10T00:26:49.896Z,100147.19
2023-05-10T00:27:56.382Z,100145.44
2023-05-10T00:28:59.764Z,100150.50
2023-05-10T00:30:03.699Z,100147.91
2023-05-10T00:31:10.464Z,100146.16
2023-05-10T00:32:15.877Z,100147.84
2023-05-10T00:33:20.489Z,100147.84
2023-05-10T00:34:24.100Z,100150.41
2023-05-10T00:35:27.975Z,100146.94
2023-05-10T00:36:30.739Z,100140.91
2023-05-10T00:37:34.737Z,100147.75
2023-05-10T00:38:37.667Z,100146.88
2023-05-10T00:39:41.303Z,100145.28
2023-05-10T00:40:43.796Z,100146.16
2023-05-10T00:41:55.365Z,100141.81
2023-05-10T00:42:59.420Z,100149.53
2023-05-10T00:44:03.310Z,100143.50
2023-05-10T00:45:07.606Z,100146.94
2023-05-10T00:46:13.387Z,100143.50
2023-05-10T00:47:17.019Z,100146.06
2023-05-10T00:48:21.481Z,100148.63
2023-05-10T00:49:24.421Z,100148.72
2023-05-10T00:50:28.329Z,100146.16
2023-05-10T00:51:32.240Z,100142.59
2023-05-10T00:52:36.827Z,100147.91
2023-05-10T00:53:39.802Z,100146.22
2023-05-10T00:54:43.691Z,100139.31
2023-05-10T00:55:47.215Z,100139.31
2023-05-10T00:56:51.220Z,100147.19
2023-05-10T00:57:54.612Z,100138.63
2023-05-10T00:58:58.884Z,100137.81
2023-05-10T01:00:03.077Z,100135.16
2023-05-10T01:01:08.104Z,100142.22
2023-05-10T01:02:14.417Z,100140.56
2023-05-10T01:03:18.433Z,100136.38
2023-05-10T01:04:26.875Z,100137.44
2023-05-10T01:05:31.232Z,100137.59
2023-05-10T01:06:34.149Z,100137.78
2023-05-10T01:07:37.973Z,100135.38
2023-05-10T01:08:41.149Z,100137.22
2023-05-10T01:09:45.110Z,100133.03
2023-05-10T01:10:50.307Z,100135.72
2023-05-10T01:11:54.524Z,100137.66
2023-05-10T01:12:58.077Z,100134.19
2023-05-10T01:14:02.103Z,100135.25
2023-05-10T01:15:07.015Z,100131.06
2023-05-10T01:16:11.595Z,100135.47
2023-05-10T01:17:17.402Z,100133.91
2023-05-10T01:18:23.843Z,100136.53
2023-05-10T01:19:29.231Z,100127.13
2023-05-10T01:20:39.472Z,100134.13
2023-05-10T01:21:54.535Z,100135.09
2023-05-10T01:23:30.837Z,100126.66
2023-05-10T01:24:47.690Z,100125.03
2023-05-10T01:26:32.659Z,100128.69
2023-05-10T01:28:01.032Z,100125.38
2023-05-10T01:29:40.734Z,100121.28
2023-05-10T01:31:05.409Z,100121.44
2023-05-10T01:32:27.639Z,100117.38
2023-05-10T01:33:32.162Z,100125.22
2023-05-10T01:34:42.063Z,100114.91
2023-05-10T01:35:49.087Z,100116.69
2023-05-10T01:37:01.325Z,100117.66
2023-05-10T01:38:13.459Z,100122.03
2023-05-10T01:39:26.973Z,100126.53
2023-05-10T01:40:34.856Z,100123.13
2023-05-10T01:41:47.737Z,100123.25
2023-05-10T01:42:54.735Z,100121.63
2023-05-10T01:44:04.883Z,100126.84
2023-05-10T01:45:16.176Z,100121.53
2023-05-10T01:46:27.209Z,100124.25
2023-05-10T01:47:37.251Z,100119.22
2023-05-10T01:48:48.599Z,100123.53
2023-05-10T01:49:53.681Z,100118.38
2023-05-10T01:50:59.384Z,100124.53
2023-05-10T01:52:08.413Z,100124.53
2023-05-10T01:53:15.392Z,100126.28
2023-05-10T01:54:20.793Z,100128.94
2023-05-10T01:55:27.867Z,100125.53
2023-05-10T01:56:34.647Z,100128.22
2023-05-10T01:57:40.862Z,100121.44
2023-05-10T01:58:46.848Z,100127.56
2023-05-10T01:59:53.365Z,100126.75
2023-05-10T02:00:57.223Z,100132.88
2023-05-10T02:02:01.323Z,100123.53
2023-05-10T02:03:08.097Z,100121.94
2023-05-10T02:04:14.035Z,100120.25
2023-05-10T02:05:18.870Z,100119.34
2023-05-10T02:06:24.728Z,100116.94
2023-05-10T02:07:30.271Z,100122.94
2023-05-10T02:08:38.448Z,100115.22
2023-05-10T02:09:42.723Z,100117.09
2023-05-10T02:10:49.115Z,100116.28
2023-05-10T02:11:52.098Z,100113.69
2023-05-10T02:12:57.538Z,100120.63
2023-05-10T02:14:01.765Z,100112.91
2023-05-10T02:15:09.491Z,100122.38
2023-05-10T02:16:14.421Z,100112.06
2023-05-10T02:17:19.868Z,100116.50
2023-05-10T02:18:25.502Z,100102.34
2023-05-10T02:19:31.447Z,100127.69
2023-05-10T02:20:36.363Z,100119.16
2023-05-10T02:21:41.782Z,100119.97
2023-05-10T02:22:46.461Z,100121.81
2023-05-10T02:23:53.762Z,100119.25
2023-05-10T02:24:57.344Z,100121.09
2023-05-10T02:26:02.851Z,100124.72
2023-05-10T02:27:07.563Z,100121.41
2023-05-10T02:28:14.944Z,100120.66
2023-05-10T02:29:18.614Z,100118.41
2023-05-10T02:30:24.133Z,100116.78
2023-05-10T02:31:27.649Z,100116.19
2023-05-10T02:32:32.499Z,100117.31
2023-05-10T02:33:37.339Z,100119.25
2023-05-10T02:34:41.981Z,100110.88
2023-05-10T02:35:45.239Z,100114.50
2023-05-10T02:36:49.811Z,100106.03
2023-05-10T02:37:52.729Z,100108.13
2023-05-10T02:38:57.236Z,100105.59
2023-05-10T02:40:00.440Z,100108.41
2023-05-10T02:41:06.407Z,100107.75
2023-05-10T02:42:09.760Z,100111.28
2023-05-10T02:43:16.804Z,100107.09
2023-05-10T02:44:21.250Z,100107.22
2023-05-10T02:45:30.418Z,100088.16
2023-05-10T02:46:33.303Z,100107.66
2023-05-10T02:47:37.979Z,100102.81
2023-05-10T02:48:42.658Z,100104.69
2023-05-10T02:49:46.790Z,100105.81
2023-05-10T02:50:52.689Z,100097.34
2023-05-10T02:52:00.967Z,100103.50
2023-05-10T02:53:11.098Z,100108.03
2023-05-10T02:54:21.077Z,100107.13
2023-05-10T02:55:33.623Z,100107.41
2023-05-10T02:56:43.171Z,100105.72
2023-05-10T02:57:59.930Z,100102.47
2023-05-10T02:59:04.343Z,100099.22
2023-05-10T03:00:09.008Z,100099.41
2023-05-10T03:01:12.992Z,100090.13
2023-05-10T03:02:15.682Z,100097.13
2023-05-10T03:03:19.635Z,100096.44
2023-05-10T03:04:25.805Z,100099.09
2023-05-10T03:05:32.340Z,100098.28
2023-05-10T03:06:38.041Z,100090.00
2023-05-10T03:07:42.381Z,100091.78
2023-05-10T03:08:45.891Z,100096.25
2023-05-10T03:09:51.125Z,100094.63
2023-05-10T03:11:03.550Z,100096.41
2023-05-10T03:12:15.288Z,100093.13
2023-05-10T03:13:30.404Z,100087.28
2023-05-10T03:14:48.509Z,100090.63
2023-05-10T03:16:00.844Z,100084.75
2023-05-10T03:17:12.763Z,100089.91
2023-05-10T03:18:22.695Z,100089.22
2023-05-10T03:19:30.105Z,100084.28
2023-05-10T03:20:37.860Z,100089.59
2023-05-10T03:21:47.639Z,100091.41
2023-05-10T03:22:54.941Z,100087.22
2023-05-10T03:24:02.511Z,100084.69
2023-05-10T03:25:08.427Z,100086.34
2023-05-10T03:26:21.637Z,100095.66
2023-05-10T03:27:27.614Z,100088.66
2023-05-10T03:28:34.174Z,100088.78
2023-05-10T03:29:38.787Z,100084.28
2023-05-10T03:30:44.035Z,100091.97
2023-05-10T03:31:48.248Z,100089.44
2023-05-10T03:32:52.922Z,100084.22
2023-05-10T03:33:55.653Z,100085.94
2023-05-10T03:35:09.602Z,100085.31
2023-05-10T03:36:14.972Z,100087.84
2023-05-10T03:37:17.677Z,100083.81
2023-05-10T03:38:21.525Z,100087.34
2023-05-10T03:39:24.305Z,100083.06
2023-05-10T03:40:33.474Z,100090.28
2023-05-10T03:41:36.571Z,100076.47
2023-05-10T03:42:40.392Z,100085.16
2023-05-10T03:43:43.127Z,100082.03
2023-05-10T03:44:46.856Z,100083.25
2023-05-10T03:45:49.739Z,100081.72
2023-05-10T03:46:53.560Z,100082.81
2023-05-10T03:47:56.735Z,100082.22
2023-05-10T03:49:00.625Z,100073.06
2023-05-10T03:50:05.309Z,100079.31
2023-05-10T03:51:10.138Z,100076.09
2023-05-10T03:52:13.331Z,100080.50
2023-05-10T03:53:17.074Z,100074.69
2023-05-10T03:54:19.845Z,100075.63
2023-05-10T03:55:23.692Z,100076.78
2023-05-10T03:56:27.155Z,100072.63
2023-05-10T03:57:31.516Z,100073.31
2023-05-10T03:58:34.806Z,100071.03
2023-05-10T03:59:38.964Z,100071.28
2023-05-10T04:00:46.196Z,100065.47
2023-05-10T04:01:51.097Z,100072.19
2023-05-10T04:02:53.912Z,100063.75
2023-05-10T04:03:57.995Z,100073.97
2023-05-10T04:05:00.947Z,100074.28
2023-05-10T04:06:07.277Z,100075.88
2023-05-10T04:07:11.699Z,100075.03
2023-05-10T04:08:16.015Z,100070.94
2023-05-10T04:09:18.829Z,100076.31
2023-05-10T04:10:22.540Z,100071.91
2023-05-10T04:11:26.001Z,100073.75
2023-05-10T04:12:29.970Z,100068.94
2023-05-10T04:13:32.785Z,100071.78
2023-05-10T04:14:36.490Z,100071.59
2023-05-10T04:15:38.877Z,100069.63
2023-05-10T04:16:42.563Z,100063.78
2023-05-10T04:17:45.645Z,100063.78
2023-05-10T04:18:49.455Z,100058.06
2023-05-10T04:19:54.272Z,100066.78
2023-05-10T04:20:58.083Z,100071.22
2023-05-10T04:22:03.850Z,100072.97
2023-05-10T04:23:07.604Z,100071.53
2023-05-10T04:24:10.434Z,100074.25
2023-05-10T04:25:14.294Z,100078.00
2023-05-10T04:26:16.974Z,100073.63
2023-05-10T04:27:20.994Z,100076.50
2023-05-10T04:28:24.832Z,100068.63
2023-05-10T04:29:27.842Z,100070.63
2023-05-10T04:30:31.674Z,100065.50
2023-05-10T04:31:34.572Z,100075.19
2023-05-10T04:32:38.423Z,100077.94
2023-05-10T04:33:41.402Z,100069.47
2023-05-10T04:34:45.096Z,100070.25
2023-05-10T04:35:47.854Z,100066.19
2023-05-10T04:36:52.102Z,100071.44
2023-05-10T04:37:56.322Z,100066.56
2023-05-10T04:39:00.074Z,100066.97
2023-05-10T04:40:04.443Z,100069.81
2023-05-10T04:41:09.357Z,100067.38
2023-05-10T04:42:12.988Z,100055.56
2023-05-10T04:43:16.988Z,100069.63
2023-05-10T04:44:19.858Z,100073.25
2023-05-10T04:45:23.797Z,100053.66
2023-05-10T04:46:26.989Z,100058.94
2023-05-10T04:47:30.735Z,100059.38
2023-05-10T04:48:33.535Z,100059.53
2023-05-10T04:49:37.527Z,100058.84
2023-05-10T04:50:41.637Z,100059.13
2023-05-10T04:51:45.470Z,100059.25
2023-05-10T04:52:48.302Z,100060.78
2023-05-10T04:54:05.247Z,100060.06
2023-05-10T04:55:11.413Z,100055.00
2023-05-10T04:56:15.275Z,100048.50
2023-05-10T04:57:18.212Z,100039.16
2023-05-10T04:58:22.138Z,100047.28
2023-05-10T04:59:25.142Z,100044.94
2023-05-10T05:00:28.984Z,100045.97
2023-05-10T05:01:34.102Z,100047.94
2023-05-10T05:02:37.070Z,100040.41
2023-05-10T05:03:40.970Z,100040.63
2023-05-10T05:04:43.716Z,100036.31
2023-05-10T05:05:47.751Z,100039.13
2023-05-10T05:06:52.971Z,100045.41
2023-05-10T05:07:57.614Z,100044.81
2023-05-10T05:09:02.004Z,100037.94
2023-05-10T05:10:06.844Z,100042.50
2023-05-10T05:11:09.524Z,100038.81
2023-05-10T05:12:15.418Z,100027.09
2023-05-10T05:13:18.307Z,100031.63
2023-05-10T05:14:22.361Z,100031.06
2023-05-10T05:15:25.144Z,100033.81
2023-05-10T05:16:29.712Z,100039.16
2023-05-10T05:17:32.787Z,100030.47
2023-05-10T05:18:36.748Z,100030.47
2023-05-10T05:19:39.382Z,100031.00
2023-05-10T05:20:43.221Z,100031.00
2023-05-10T05:21:46.085Z,100033.50
2023-05-10T05:22:50.136Z,100031.06
2023-05-10T05:23:52.988Z,100028.28
2023-05-10T05:24:59.400Z,100023.53
2023-05-10T05:26:03.088Z,100030.72
2023-05-10T05:27:07.085Z,100021.91
2023-05-10T05:28:09.996Z,100022.94
2023-05-10T05:29:13.704Z,100023.34
2023-05-10T05:30:16.381Z,100031.50
2023-05-10T05:31:20.567Z,100027.00
2023-05-10T05:32:23.523Z,100018.41
2023-05-10T05:33:27.296Z,100022.13
2023-05-10T05:34:30.200Z,100025.78
2023-05-10T05:35:33.844Z,100027.66
2023-05-10T05:36:39.500Z,100026.00
2023-05-10T05:37:42.312Z,100028.69
2023-05-10T05:38:46.353Z,100030.97
2023-05-10T05:39:49.136Z,100021.19
2023-05-10T05:40:54.714Z,100023.81
2023-05-10T05:41:57.340Z,100026.53
2023-05-10T05:43:01.189Z,100028.28
2023-05-10T05:44:03.979Z,100028.84
2023-05-10T05:45:10.106Z,100022.72
2023-05-10T05:46:13.868Z,100018.41
2023-05-10T05:47:16.837Z,100017.50
2023-05-10T05:48:20.591Z,100020.03
2023-05-10T05:49:23.305Z,100015.97
2023-05-10T05:50:27.216Z,100016.91
2023-05-10T05:51:30.028Z,100017.31
2023-05-10T05:52:33.702Z,100007.94
2023-05-10T05:53:36.829Z,99998.38
2023-05-10T05:54:40.690Z,100002.72
2023-05-10T05:55:54.913Z,100001.03
2023-05-10T05:57:01.067Z,100001.06
2023-05-10T05:58:04.316Z,100006.22
2023-05-10T05:59:08.445Z,100005.50
2023-05-10T06:00:13.050Z,100001.63
2023-05-10T06:01:15.601Z,99988.41
2023-05-10T06:02:19.382Z,100000.50
2023-05-10T06:03:23.551Z,99998.25
2023-05-10T06:04:26.525Z,99998.25
2023-05-10T06:05:30.386Z,100006.38
2023-05-10T06:06:34.591Z,99998.91
2023-05-10T06:07:37.460Z,100000.41
2023-05-10T06:08:41.161Z,99994.63
2023-05-10T06:09:43.973Z,99999.84
2023-05-10T06:10:47.774Z,99993.09
2023-05-10T06:11:51.828Z,99994.06
2023-05-10T06:12:55.748Z,99997.66
2023-05-10T06:13:58.824Z,99990.03
2023-05-10T06:15:03.127Z,99997.19
2023-05-10T06:16:07.752Z,99989.53
2023-05-10T06:17:11.610Z,99992.34
2023-05-10T06:18:14.242Z,99986.44
2023-05-10T06:19:18.450Z,99984.84
2023-05-10T06:20:21.400Z,99993.47
2023-05-10T06:21:25.378Z,99987.34
2023-05-10T06:22:29.245Z,99980.47
2023-05-10T06:23:32.082Z,99988.34
2023-05-10T06:24:35.928Z,99987.53
2023-05-10T06:25:40.153Z,99980.63
2023-05-10T06:26:43.823Z,99989.41
2023-05-10T06:27:51.085Z,99990.34
2023-05-10T06:28:57.348Z,99979.97
2023-05-10T06:30:11.820Z,99988.75
2023-05-10T06:31:17.380Z,99992.13
2023-05-10T06:32:20.249Z,99997.28
2023-05-10T06:33:23.889Z,99991.22
2023-05-10T06:34:26.896Z,99987.63
2023-05-10T06:35:31.108Z,99989.97
2023-05-10T06:36:33.922Z,99982.88
2023-05-10T06:37:37.628Z,99985.13
2023-05-10T06:38:40.607Z,99980.78
2023-05-10T06:39:44.394Z,99982.69
2023-05-10T06:40:47.136Z,99978.50
2023-05-10T06:41:51.327Z,99989.88
2023-05-10T06:42:58.248Z,99979.44
2023-05-10T06:44:00.847Z,99975.69
2023-05-10T06:45:05.181Z,99981.16
2023-05-10T06:46:09.442Z,99977.78
2023-05-10T06:47:13.306Z,99978.75
2023-05-10T06:48:16.078Z,99977.13
2023-05-10T06:49:20.241Z,99975.50
2023-05-10T06:50:22.978Z,99976.50
2023-05-10T06:51:27.286Z,99976.66
2023-05-10T06:52:30.187Z,99971.53
2023-05-10T06:53:34.128Z,99971.66
2023-05-10T06:54:36.996Z,99967.34
2023-05-10T06:55:40.902Z,99971.75
2023-05-10T06:56:43.536Z,99968.38
2023-05-10T06:57:47.644Z,99963.34
2023-05-10T06:58:51.908Z,99972.06
2023-05-10T06:59:56.926Z,99964.28
2023-05-10T07:01:05.550Z,99969.53
2023-05-10T07:02:08.661Z,99968.53
2023-05-10T07:03:12.727Z,99963.41
2023-05-10T07:04:15.731Z,99963.47
2023-05-10T07:05:20.082Z,99950.94
2023-05-10T07:06:32.964Z,99958.13
2023-05-10T07:07:37.561Z,99967.81
2023-05-10T07:08:41.603Z,99970.44
2023-05-10T07:09:44.318Z,99962.69
2023-05-10T07:10:48.389Z,99965.34
2023-05-10T07:11:51.093Z,99954.91
2023-05-10T07:12:55.094Z,99967.19
2023-05-10T07:14:02.178Z,99970.81
2023-05-10T07:15:06.905Z,99960.44
2023-05-10T07:16:10.120Z,99964.94
2023-05-10T07:17:14.454Z,99956.44
2023-05-10T07:18:18.395Z,99967.88
2023-05-10T07:19:23.076Z,99962.72
2023-05-10T07:20:26.778Z,99965.31
2023-05-10T07:21:30.762Z,99960.06
2023-05-10T07:22:34.948Z,99958.25
2023-05-10T07:23:38.715Z,99960.91
2023-05-10T07:24:42.097Z,99954.00
2023-05-10T07:25:47.622Z,99953.25
2023-05-10T07:26:51.407Z,99949.84
2023-05-10T07:27:55.324Z,99954.28
2023-05-10T07:28:58.032Z,99960.94
2023-05-10T07:30:04.058Z,99958.16
2023-05-10T07:31:08.564Z,99953.69
2023-05-10T07:32:11.841Z,99955.34
2023-05-10T07:33:16.942Z,99968.06
2023-05-10T07:34:19.626Z,99966.28
2023-05-10T07:35:23.656Z,99954.91
2023-05-10T07:36:26.415Z,99953.00
2023-05-10T07:37:30.096Z,99951.25
2023-05-10T07:38:33.036Z,99944.38
2023-05-10T07:39:36.704Z,99941.72
2023-05-10T07:40:40.416Z,99939.88
2023-05-10T07:41:44.712Z,99946.19
2023-05-10T07:42:47.387Z,99942.03
2023-05-10T07:43:51.437Z,99941.25
2023-05-10T07:44:55.413Z,99943.16
2023-05-10T07:46:01.157Z,99937.19
2023-05-10T07:47:05.558Z,99947.00
2023-05-10T07:48:09.733Z,99931.38
2023-05-10T07:49:12.532Z,99939.41
2023-05-10T07:50:16.629Z,99936.88
2023-05-10T07:51:19.551Z,99943.81
2023-05-10T07:52:23.231Z,99941.19
2023-05-10T07:53:27.501Z,99931.63
2023-05-10T07:54:31.318Z,99935.03
2023-05-10T07:55:34.417Z,99933.91
2023-05-10T07:56:38.233Z,99932.84
2023-05-10T07:57:41.335Z,99927.31
2023-05-10T07:58:45.044Z,99933.09
2023-05-10T07:59:47.869Z,99932.94
2023-05-10T08:00:51.814Z,99926.69
2023-05-10T08:01:57.525Z,99924.91
2023-05-10T08:03:00.542Z,99921.38
2023-05-10T08:04:07.837Z,99921.22
2023-05-10T08:05:11.886Z,99925.63
2023-05-10T08:06:16.505Z,99922.94
2023-05-10T08:07:20.453Z,99920.50
2023-05-10T08:08:23.972Z,99917.81
2023-05-10T08:09:27.685Z,99925.88
2023-05-10T08:10:30.725Z,99923.81
2023-05-10T08:11:35.218Z,99918.44
2023-05-10T08:12:39.105Z,99919.56
2023-05-10T08:13:43.055Z,99923.09
2023-05-10T08:14:47.109Z,99919.59
2023-05-10T08:15:50.412Z,99919.56
2023-05-10T08:16:54.310Z,99909.66
2023-05-10T08:17:59.204Z,99911.44
2023-05-10T08:19:02.043Z,99915.16
2023-05-10T08:20:06.899Z,99913.44
2023-05-10T08:21:10.219Z,99910.91
2023-05-10T08:22:13.965Z,99914.50
2023-05-10T08:23:17.108Z,99907.63
2023-05-10T08:24:20.871Z,99913.69
2023-05-10T08:25:23.563Z,99912.91
2023-05-10T08:26:28.061Z,99914.72
2023-05-10T08:27:30.765Z,99907.81
2023-05-10T08:28:34.719Z,99906.16
2023-05-10T08:29:49.657Z,99906.31
2023-05-10T08:30:54.403Z,99909.94
2023-05-10T08:31:58.060Z,99903.97
2023-05-10T08:33:02.403Z,99899.81
2023-05-10T08:34:06.147Z,99902.53
2023-05-10T08:35:09.106Z,99900.81
2023-05-10T08:36:15.375Z,99898.25
2023-05-10T08:37:18.199Z,99892.34
2023-05-10T08:38:21.915Z,99899.38
2023-05-10T08:39:30.225Z,99895.06
2023-05-10T08:40:34.598Z,99902.00
2023-05-10T08:41:41.529Z,99900.13
2023-05-10T08:42:53.660Z,99900.13
2023-05-10T08:43:58.201Z,99887.09
2023-05-10T08:45:01.306Z,99887.09
2023-05-10T08:46:11.789Z,99886.22
2023-05-10T08:47:18.041Z,99888.91
2023-05-10T08:48:26.029Z,99888.97
2023-05-10T08:49:33.877Z,99889.81
2023-05-10T08:50:39.218Z,99889.94
2023-05-10T08:51:46.163Z,99887.31
2023-05-10T08:52:53.916Z,99889.19
2023-05-10T08:53:57.920Z,99886.66
2023-05-10T08:55:01.912Z,99886.81
2023-05-10T08:56:06.679Z,99885.09
2023-05-10T08:57:09.489Z,99878.09
2023-05-10T08:58:13.201Z,99879.75
2023-05-10T08:59:17.128Z,99874.63
2023-05-10T09:00:23.171Z,99868.53
2023-05-10T09:01:29.776Z,99864.25
2023-05-10T09:02:34.037Z,99863.47
2023-05-10T09:03:41.369Z,99870.41
2023-05-10T09:04:44.132Z,99871.00
2023-05-10T09:05:48.712Z,99875.13
2023-05-10T09:06:52.023Z,99863.81
2023-05-10T09:07:55.846Z,99865.81
2023-05-10T09:08:58.656Z,99868.53
2023-05-10T09:10:02.930Z,99856.50
2023-05-10T09:11:06.127Z,99859.16
2023-05-10T09:12:12.717Z,99854.84
2023-05-10T09:13:16.544Z,99849.69
2023-05-10T09:14:22.332Z,99848.09
2023-05-10T09:15:25.693Z,99847.28
2023-05-10T09:16:29.784Z,99842.97
2023-05-10T09:17:32.921Z,99841.31
2023-05-10T09:18:38.551Z,99837.00
2023-05-10T09:19:42.265Z,99837.03
2023-05-10T09:20:46.188Z,99834.56
2023-05-10T09:21:50.197Z,99835.56
2023-05-10T09:22:54.060Z,99838.25
2023-05-10T09:23:57.689Z,99838.31
2023-05-10T09:25:08.835Z,99841.84
2023-05-10T09:26:12.828Z,99839.38
2023-05-10T09:27:15.629Z,99836.75
2023-05-10T09:28:19.591Z,99836.59
2023-05-10T09:29:22.395Z,99841.91
2023-05-10T09:30:28.673Z,99821.72
2023-05-10T09:31:52.202Z,99841.00
2023-05-10T09:32:57.144Z,99838.41
2023-05-10T09:34:02.439Z,99834.97
2023-05-10T09:35:10.358Z,99839.25
2023-05-10T09:36:13.899Z,99818.28
2023-05-10T09:37:17.553Z,99828.81
2023-05-10T09:38:20.348Z,99811.38
2023-05-10T09:39:33.392Z,99820.94
2023-05-10T09:40:37.704Z,99820.09
2023-05-10T09:41:44.110Z,99826.16
2023-05-10T09:42:54.928Z,99827.97
2023-05-10T09:43:58.924Z,99827.22
2023-05-10T09:45:04.082Z,99830.84
2023-05-10T09:46:12.436Z,99828.31
2023-05-10T09:47:20.352Z,99818.81
2023-05-10T09:48:26.492Z,99821.47
2023-05-10T09:49:31.969Z,99828.50
2023-05-10T09:50:35.774Z,99819.03
2023-05-10T09:51:38.668Z,99813.00
2023-05-10T09:52:54.313Z,99816.53
2023-05-10T09:54:12.172Z,99816.69
2023-05-10T09:55:16.600Z,99804.44
2023-05-10T09:56:35.772Z,99807.25
2023-05-10T09:57:39.540Z,99809.03
2023-05-10T09:58:43.500Z,99810.91
2023-05-10T09:59:46.443Z,99803.16
2023-05-10T10:00:53.014Z,99812.84
2023-05-10T10:01:58.442Z,99817.06
2023-05-10T10:03:03.348Z,99799.38
2023-05-10T10:04:07.299Z,99809.16
2023-05-10T10:05:14.767Z,99803.88
2023-05-10T10:06:29.651Z,99804.84
2023-05-10T10:07:35.433Z,99810.91
2023-05-10T10:08:38.612Z,99803.81
2023-05-10T10:09:42.685Z,99805.59
2023-05-10T10:10:47.300Z,99792.56
2023-05-10T10:11:50.275Z,99792.63
2023-05-10T10:12:54.305Z,99796.06
2023-05-10T10:13:57.540Z,99810.00
2023-05-10T10:15:02.890Z,99803.09
2023-05-10T10:16:10.576Z,99792.72
2023-05-10T10:17:15.330Z,99794.53
2023-05-10T10:18:20.944Z,99796.38
2023-05-10T10:19:25.032Z,99790.31
2023-05-10T10:20:31.189Z,99788.66
2023-05-10T10:21:34.418Z,99787.03
2023-05-10T10:22:39.335Z,99788.06
2023-05-10T10:23:42.172Z,99790.78
2023-05-10T10:24:45.966Z,99787.41
2023-05-10T10:25:50.974Z,99784.03
2023-05-10T10:26:56.679Z,99787.63
2023-05-10T10:28:11.768Z,99781.66
2023-05-10T10:29:23.234Z,99780.88
2023-05-10T10:30:31.716Z,99782.75
2023-05-10T10:31:41.522Z,99791.41
2023-05-10T10:33:16.851Z,99768.78
2023-05-10T10:34:32.581Z,99788.13
2023-05-10T10:35:38.300Z,99791.50
2023-05-10T10:36:48.017Z,99791.66
2023-05-10T10:37:53.794Z,99788.22
2023-05-10T10:39:00.811Z,99785.69
2023-05-10T10:40:28.606Z,99789.19
2023-05-10T10:41:33.459Z,99775.16
2023-05-10T10:42:51.129Z,99775.19
2023-05-10T10:44:25.883Z,99784.75
2023-05-10T10:45:29.977Z,99787.41
2023-05-10T10:46:33.725Z,99780.31
2023-05-10T10:47:38.630Z,99782.13
2023-05-10T10:48:42.200Z,99782.94
2023-05-10T10:49:52.800Z,99777.56
2023-05-10T10:51:01.055Z,99774.16
2023-05-10T10:52:29.937Z,99770.72
2023-05-10T10:53:34.358Z,99768.25
2023-05-10T10:54:37.344Z,99759.56
2023-05-10T10:55:49.357Z,99760.53
2023-05-10T10:57:14.346Z,99760.56
2023-05-10T10:58:33.684Z,99758.88
2023-05-10T10:59:36.643Z,99746.72
2023-05-10T11:00:42.078Z,99749.38
2023-05-10T11:01:46.452Z,99750.31
2023-05-10T11:02:51.015Z,99745.97
2023-05-10T11:04:20.144Z,99752.09
2023-05-10T11:05:43.024Z,99746.81
2023-05-10T11:06:47.358Z,99753.00
2023-05-10T11:07:58.072Z,99752.09
2023-05-10T11:09:02.499Z,99741.50
2023-05-10T11:10:08.869Z,99749.38
2023-05-10T11:11:16.909Z,99744.94
2023-05-10T11:12:19.860Z,99745.78
2023-05-10T11:13:33.987Z,99735.25
2023-05-10T11:14:37.897Z,99744.00
2023-05-10T11:15:50.838Z,99736.13
2023-05-10T11:16:54.958Z,99736.97
2023-05-10T11:17:57.758Z,99731.75
2023-05-10T11:19:04.245Z,99736.09
2023-05-10T11:20:11.230Z,99744.88
2023-05-10T11:21:17.843Z,99722.13
2023-05-10T11:22:22.138Z,99736.09
2023-05-10T11:23:25.938Z,99735.19
2023-05-10T11:24:29.668Z,99742.22
2023-05-10T11:25:33.414Z,99734.31
2023-05-10T11:26:38.438Z,99739.56
2023-05-10T11:27:43.485Z,99737.81
2023-05-10T11:28:48.381Z,99743.22
2023-05-10T11:29:54.548Z,99730.06
2023-05-10T11:30:59.113Z,99719.53
2023-05-10T11:32:03.604Z,99730.91
2023-05-10T11:33:06.836Z,99730.00
2023-05-10T11:34:10.503Z,99722.13
2023-05-10T11:35:14.401Z,99722.91
2023-05-10T11:36:19.884Z,99728.88
2023-05-10T11:37:25.616Z,99726.09
2023-05-10T11:38:29.459Z,99726.84
2023-05-10T11:39:33.652Z,99724.03
2023-05-10T11:40:37.611Z,99707.25
2023-05-10T11:41:43.073Z,99712.34
2023-05-10T11:42:46.491Z,99716.56
2023-05-10T11:43:52.668Z,99710.28
2023-05-10T11:44:55.615Z,99710.97
2023-05-10T11:46:02.137Z,99701.16
2023-05-10T11:47:04.869Z,99712.31
2023-05-10T11:48:08.920Z,99714.00
2023-05-10T11:49:14.524Z,99713.81
2023-05-10T11:50:19.916Z,99710.09
2023-05-10T11:51:24.050Z,99710.75
2023-05-10T11:52:30.088Z,99703.44
2023-05-10T11:53:33.911Z,99704.13
2023-05-10T11:54:37.963Z,99703.81
2023-05-10T11:55:41.596Z,99701.88
2023-05-10T11:56:46.504Z,99696.44
2023-05-10T11:57:53.083Z,99698.09
2023-05-10T11:58:58.188Z,99694.41
2023-05-10T12:00:02.938Z,99695.13
2023-05-10T12:01:11.902Z,99693.28
2023-05-10T12:02:15.456Z,99697.16
2023-05-10T12:03:20.285Z,99697.19
2023-05-10T12:04:24.140Z,99694.34
2023-05-10T12:05:28.434Z,99687.16
2023-05-10T12:06:37.780Z,99695.91
2023-05-10T12:07:42.174Z,99688.53
2023-05-10T12:08:47.933Z,99679.53
2023-05-10T12:10:05.575Z,99676.03
2023-05-10T12:11:12.060Z,99677.94
2023-05-10T12:12:18.544Z,99683.06
2023-05-10T12:13:23.326Z,99682.56
2023-05-10T12:14:26.257Z,99682.03
2023-05-10T12:15:30.467Z,99686.41
2023-05-10T12:16:34.871Z,99687.28
2023-05-10T12:17:41.353Z,99682.78
2023-05-10T12:18:47.464Z,99682.56
2023-05-10T12:19:50.405Z,99679.63
2023-05-10T12:20:55.582Z,99685.69
2023-05-10T12:21:59.327Z,99684.63
2023-05-10T12:23:04.859Z,99687.31
2023-05-10T12:24:09.988Z,99653.41
2023-05-10T12:25:12.749Z,99674.94
2023-05-10T12:26:17.274Z,99667.13
2023-05-10T12:28:41.653Z,99682.38
2023-05-10T12:29:45.989Z,99680.31
2023-05-10T12:30:49.703Z,99670.66
2023-05-10T12:31:54.259Z,99670.31
2023-05-10T12:33:03.465Z,99665.34
2023-05-10T12:34:07.268Z,99665.22
2023-05-10T12:35:10.215Z,99671.13
2023-05-10T12:36:16.031Z,99660.69
2023-05-10T12:37:18.901Z,99661.78
2023-05-10T12:38:32.053Z,99657.69
2023-05-10T12:39:43.359Z,99665.25
2023-05-10T12:40:47.565Z,99665.13